Time;durP1;ratioP1;P1;durP2;ratioP2;P2;SDS_P1;SDS_P2;PMS_P1;PMS_P2;Temp;Humidity;BMP_temperature;BMP_pressure;BME280_temperature;BME280_humidity;BME280_pressure;Samples;Min_cycle;Max_cycle;Signal;HPM_P1;HPM_P2
2023/12/08 00:02:16;;;;;;;23.33;16.07;;;0.20;99.90;;;-141.84;100.00;109632.72;5012717;28;20234;-67
2023/12/08 00:04:44;;;;;;;23.80;16.73;;;0.30;99.90;;;-141.84;100.00;109100.59;5010194;28;20229;-69
2023/12/08 00:07:13;;;;;;;25.10;16.13;;;0.30;99.90;;;-141.84;100.00;108036.56;4999584;28;20203;-66
2023/12/08 00:09:41;;;;;;;22.50;16.37;;;0.30;99.90;;;-141.84;100.00;107238.72;5013820;28;20230;-67
2023/12/08 00:12:09;;;;;;;19.63;14.90;;;0.30;99.90;;;-141.84;100.00;106972.81;5014224;28;20633;-66
2023/12/08 00:14:38;;;;;;;23.90;16.83;;;0.40;99.90;;;-141.84;100.00;104846.16;5014073;28;20231;-67
2023/12/08 00:17:06;;;;;;;22.70;16.10;;;0.40;99.90;;;-141.84;100.00;105643.53;5014264;28;20233;-67
2023/12/08 00:19:36;;;;;;;23.20;16.10;;;0.40;99.90;;;-141.84;100.00;105643.53;5014480;28;20236;-67
2023/12/08 00:22:05;;;;;;;23.63;16.07;;;0.30;99.90;;;-141.84;100.00;105111.94;4994345;28;20218;-67
2023/12/08 00:24:33;;;;;;;23.37;15.27;;;0.30;99.90;;;-141.84;100.00;105643.53;4994077;28;20912;-67
2023/12/08 00:27:01;;;;;;;21.23;15.60;;;0.30;99.90;;;-141.84;100.00;105377.72;4994145;28;20278;-67
2023/12/08 00:29:29;;;;;;;22.93;15.53;;;0.30;99.90;;;-141.84;100.00;106175.19;5004178;28;20233;-67
2023/12/08 00:31:58;;;;;;;22.40;15.73;;;0.30;99.90;;;-141.84;100.00;106441.06;5013207;28;20567;-67
2023/12/08 00:34:26;;;;;;;21.20;15.87;;;0.20;99.90;;;-141.84;100.00;106706.94;5014014;28;20308;-66
2023/12/08 00:36:56;;;;;;;21.87;15.63;;;0.30;99.90;;;-141.84;100.00;106441.06;5013266;28;20231;-66
2023/12/08 00:39:24;;;;;;;22.70;14.87;;;0.30;99.90;;;-141.84;100.00;104846.16;5013561;28;20318;-67
2023/12/08 00:41:52;;;;;;;21.70;15.77;;;0.30;99.90;;;-141.84;100.00;102455.00;5013346;28;20232;-68
2023/12/08 00:44:20;;;;;;;21.20;14.23;;;0.30;99.90;;;-141.84;100.00;102986.25;5013695;28;20232;-67
2023/12/08 00:46:49;;;;;;;21.57;14.63;;;0.20;99.90;;;-141.84;100.00;102720.59;5013104;28;20238;-68
2023/12/08 00:49:17;;;;;;;21.43;15.30;;;0.30;99.90;;;-141.84;100.00;103783.25;5014029;28;20296;-67
2023/12/08 00:51:45;;;;;;;21.17;14.73;;;0.20;99.90;;;-141.84;100.00;101392.69;5013134;28;20226;-67
2023/12/08 00:54:16;;;;;;;20.77;14.63;;;0.20;99.90;;;-141.84;100.00;101392.69;5013601;28;20281;-66
2023/12/08 00:56:44;;;;;;;20.90;14.77;;;0.20;99.90;;;-141.84;100.00;102189.38;5013232;28;20234;-66
2023/12/08 00:59:12;;;;;;;20.57;14.40;;;0.20;99.90;;;-141.84;100.00;104580.41;5013398;28;20236;-67
2023/12/08 01:01:40;;;;;;;22.37;15.17;;;0.10;99.90;;;-141.84;100.00;106175.19;5013831;28;20335;-67
2023/12/08 01:04:08;;;;;;;21.57;14.43;;;0.10;99.90;;;-141.84;100.00;106972.81;5014131;28;20206;-67
2023/12/08 01:06:37;;;;;;;20.77;14.43;;;0.10;99.90;;;-141.84;100.00;107238.72;5013610;28;20305;-67
2023/12/08 01:09:05;;;;;;;21.77;15.33;;;0.10;99.90;;;-141.84;100.00;104580.41;5013642;28;20230;-66
2023/12/08 01:11:35;;;;;;;19.80;14.30;;;0.20;99.90;;;-141.84;100.00;100861.66;5013472;28;20237;-67
2023/12/08 01:14:03;;;;;;;19.70;13.97;;;0.30;99.90;;;-141.84;100.00;97942.19;5013371;28;20222;-67
2023/12/08 01:16:31;;;;;;;21.93;14.57;;;0.30;99.90;;;-141.84;100.00;101127.16;5013695;28;20225;-68
2023/12/08 01:19:00;;;;;;;20.63;14.27;;;0.20;99.90;;;-141.84;100.00;101658.25;5010990;28;20354;-67
2023/12/08 01:21:28;;;;;;;21.27;14.20;;;0.10;99.90;;;-141.84;100.00;104048.94;4994539;28;20598;-67
2023/12/08 01:23:57;;;;;;;22.87;14.87;;;0.10;99.90;;;-141.84;100.00;104580.41;4993566;28;20641;-67
2023/12/08 01:26:25;;;;;;;21.30;14.80;;;0.10;99.90;;;-141.84;100.00;104580.41;4993566;28;20235;-67
2023/12/08 01:28:55;;;;;;;22.17;14.90;;;0.00;99.90;;;-141.84;100.00;103251.88;5000259;28;20691;-66
2023/12/08 01:31:24;;;;;;;20.70;14.93;;;0.10;99.90;;;-141.84;100.00;104846.16;5014853;28;20276;-67
2023/12/08 01:33:53;;;;;;;22.67;15.30;;;;;;;-141.84;100.00;106972.81;5013565;28;20740;-67
2023/12/08 01:36:21;;;;;;;22.30;15.57;;;-0.10;99.90;;;-141.84;100.00;108036.56;5013660;28;20571;-67
2023/12/08 01:39:12;;;;;;;22.03;15.53;;;-0.10;99.90;;;-141.84;100.00;109632.72;5014004;28;20314;-68
2023/12/08 01:41:43;;;;;;;21.90;14.67;;;-0.20;99.90;;;-141.84;100.00;110963.31;5015276;28;20233;-67
2023/12/08 01:44:13;;;;;;;21.63;15.57;;;-0.20;99.90;;;-141.84;100.00;111495.69;5015913;28;20718;-66
2023/12/08 01:46:41;;;;;;;23.27;15.30;;;-0.20;99.90;;;-141.84;100.00;109366.66;5012310;28;20259;-66
2023/12/08 01:49:10;;;;;;;24.57;15.50;;;-0.20;99.90;;;-141.84;100.00;109100.59;5012846;28;20285;-67
2023/12/08 01:51:38;;;;;;;22.77;14.87;;;-0.20;99.90;;;-141.84;100.00;108302.56;5012091;28;20377;-66
2023/12/08 01:54:08;;;;;;;23.77;14.73;;;-0.20;99.90;;;-141.84;100.00;107238.72;5012216;28;20230;-67
2023/12/08 01:56:37;;;;;;;22.47;15.70;;;-0.20;99.90;;;-141.84;100.00;107504.66;5011453;28;20230;-66
2023/12/08 01:59:06;;;;;;;21.20;14.80;;;-0.20;99.90;;;-141.84;100.00;106706.94;5011345;28;20728;-67
2023/12/08 02:01:36;;;;;;;20.30;14.00;;;-0.20;99.90;;;-141.84;100.00;106441.06;5012364;28;20653;-67
2023/12/08 02:04:05;;;;;;;21.87;14.83;;;-0.20;99.90;;;-141.84;100.00;106972.81;5012316;28;20284;-65
2023/12/08 02:06:36;;;;;;;21.83;14.53;;;-0.20;99.90;;;-141.84;100.00;106972.81;5011773;28;20761;-67
2023/12/08 02:09:04;;;;;;;22.93;15.13;;;-0.20;99.90;;;-141.84;100.00;105643.53;5006721;28;20299;-68
2023/12/08 02:11:32;;;;;;;22.50;14.50;;;-0.10;99.90;;;-141.84;100.00;105643.53;5011657;28;20333;-67
2023/12/08 02:14:01;;;;;;;20.40;14.30;;;-0.10;99.90;;;-141.84;100.00;104314.66;5011712;28;20246;-66
2023/12/08 02:16:40;;;;;;;20.37;13.13;;;-0.10;99.90;;;-141.84;100.00;97676.88;4999363;28;20242;-67
2023/12/08 02:19:13;;;;;;;19.50;13.60;;;;;;;-141.84;100.00;95289.94;4992440;28;20218;-66
2023/12/08 02:21:43;;;;;;;21.03;14.10;;;;;;;-141.84;100.00;96085.44;4995110;28;20237;-69
2023/12/08 02:24:13;;;;;;;20.20;14.17;;;;;;;-141.84;100.00;95820.25;5007130;28;20243;-67
2023/12/08 02:26:42;;;;;;;20.10;12.93;;;;;;;-141.84;100.00;96615.84;5011507;28;20285;-67
2023/12/08 02:29:11;;;;;;;18.93;13.13;;;-0.10;99.90;;;-141.84;100.00;96615.84;5011464;28;20226;-67
2023/12/08 02:31:45;;;;;;;18.63;13.57;;;;;;;-141.84;100.00;96615.84;5011569;28;20297;-66
2023/12/08 02:34:17;;;;;;;19.70;13.93;;;;;;;-141.84;100.00;97942.19;4999711;28;20228;-66
2023/12/08 02:36:48;;;;;;;19.47;13.60;;;-0.10;99.90;;;-141.84;100.00;97676.88;4991747;28;20967;-65
2023/12/08 02:39:20;;;;;;;20.67;13.93;;;;;;;-141.84;100.00;96085.44;4991772;28;20254;-66
2023/12/08 02:41:48;;;;;;;20.03;13.53;;;-0.10;99.90;;;-141.84;100.00;93434.41;4991733;28;20257;-66
2023/12/08 02:44:17;;;;;;;18.27;13.10;;;;;;;-141.84;100.00;89196.38;4991914;28;20289;-66
2023/12/08 02:46:47;;;;;;;18.70;13.90;;;;;;;-141.84;100.00;92374.47;4991686;28;20207;-65
2023/12/08 02:49:15;;;;;;;17.87;13.00;;;-0.10;99.90;;;-141.84;100.00;93169.38;4986435;28;20232;-67
2023/12/08 02:51:43;;;;;;;20.70;14.43;;;-0.10;99.90;;;-141.84;100.00;96350.63;4989572;28;20231;-67
2023/12/08 02:54:13;;;;;;;21.67;14.33;;;;;;;-141.84;100.00;95024.81;4991709;28;20255;-65
2023/12/08 02:56:43;;;;;;;18.03;13.10;;;;;;;-141.84;100.00;93169.38;4991799;28;20235;-66
2023/12/08 02:59:12;;;;;;;18.53;13.30;;;;;;;-141.84;100.00;95820.25;4991443;28;20599;-66
2023/12/08 03:01:40;;;;;;;19.40;13.60;;;-0.20;99.90;;;-141.84;100.00;98207.50;4991558;28;20313;-66
2023/12/08 03:04:09;;;;;;;21.23;13.77;;;;;;;-141.84;100.00;100596.16;4992046;28;20577;-66
2023/12/08 03:06:38;;;;;;;20.33;13.70;;;;;;;-141.84;100.00;101658.25;4991169;28;20236;-66
2023/12/08 03:09:07;;;;;;;20.77;13.50;;;-0.30;99.90;;;-141.84;100.00;100330.69;4991306;28;20239;-66
2023/12/08 03:11:35;;;;;;;18.30;12.57;;;-0.20;99.90;;;-141.84;100.00;96881.06;4988009;28;20227;-66
2023/12/08 03:14:05;;;;;;;19.97;13.67;;;;;;;-141.84;100.00;94494.59;4971626;28;20240;-65
2023/12/08 03:16:34;;;;;;;19.93;13.27;;;-0.20;99.90;;;-141.84;100.00;90255.47;4976743;28;20245;-66
2023/12/08 03:19:03;;;;;;;20.17;13.20;;;;;;;-141.84;100.00;82054.78;4991381;28;20216;-65
2023/12/08 03:21:32;;;;;;;20.83;13.93;;;;;;;-141.84;100.00;79941.19;4991302;28;20227;-66
2023/12/08 03:24:02;;;;;;;18.90;13.43;;;;;;;-141.84;100.00;80205.34;4990905;28;20235;-66
2023/12/08 03:26:31;;;;;;;18.50;13.70;;;;;;;-141.84;100.00;78356.72;4993629;28;20293;-66
2023/12/08 03:29:00;;;;;;;18.33;12.87;;;;;;;-141.84;100.00;76772.88;5004838;28;20242;-66
2023/12/08 03:31:32;;;;;;;17.67;12.93;;;;;;;-141.84;100.00;80205.34;4991761;28;20643;-66
2023/12/08 03:34:01;;;;;;;17.63;13.00;;;;;;;-141.84;100.00;81526.28;5008449;28;20284;-66
2023/12/08 03:36:31;;;;;;;20.13;12.67;;;;;;;-141.84;100.00;85491.75;5010513;28;20226;-66
2023/12/08 03:39:00;;;;;;;18.97;12.90;;;;;;;-141.84;100.00;88666.94;5010712;28;20642;-67
2023/12/08 03:41:29;;;;;;;20.60;12.60;;;;;;;-141.84;100.00;90255.47;5010736;28;20226;-66
2023/12/08 03:43:58;;;;;;;19.23;13.30;;;;;;;-141.84;100.00;91049.97;5010358;28;20297;-67
2023/12/08 03:46:29;;;;;;;18.93;13.23;;;;;;;-141.84;100.00;93699.44;5010982;28;20672;-65
2023/12/08 03:49:00;;;;;;;19.33;13.30;;;;;;;-141.84;100.00;96881.06;5007116;28;20288;-66
2023/12/08 03:51:31;;;;;;;18.53;12.27;;;;;;;-141.84;100.00;94759.69;4991034;28;20683;-66
2023/12/08 03:54:01;;;;;;;18.17;13.00;;;;;;;-141.84;100.00;95024.81;4991992;28;20328;-67
2023/12/08 03:56:30;;;;;;;21.13;13.83;;;;;;;-141.84;100.00;96615.84;4991749;28;20234;-66
2023/12/08 03:58:59;;;;;;;17.43;12.50;;;;;;;-141.84;100.00;96350.63;4997498;28;20259;-69
2023/12/08 04:01:30;;;;;;;18.40;13.17;;;;;;;-141.84;100.00;96085.44;5011747;28;20235;-67
2023/12/08 04:03:59;;;;;;;17.57;12.83;;;;;;;-141.84;100.00;94759.69;5010952;28;20295;-68
2023/12/08 04:06:29;;;;;;;17.83;12.50;;;;;;;-141.84;100.00;95820.25;5011351;28;20256;-68
2023/12/08 04:08:58;;;;;;;17.03;12.10;;;;;;;-141.84;100.00;96615.84;5010143;28;20240;-67
2023/12/08 04:11:27;;;;;;;18.57;12.90;;;;;;;-141.84;100.00;97411.59;5010593;28;20234;-69
2023/12/08 04:13:56;;;;;;;18.23;12.03;;;;;;;-141.84;100.00;97146.31;5010699;28;20265;-67
2023/12/08 04:16:25;;;;;;;18.17;12.70;;;;;;;-141.84;100.00;98207.50;5010604;28;20629;-67
2023/12/08 04:18:55;;;;;;;17.20;11.93;;;;;;;-141.84;100.00;97676.88;5009862;28;20270;-67
2023/12/08 04:21:24;;;;;;;17.60;12.63;;;-0.50;99.90;;;-141.84;100.00;96881.06;5012753;28;20234;-67
2023/12/08 04:23:53;;;;;;;19.93;12.90;;;;;;;-141.84;100.00;93699.44;5010984;28;20230;-65
2023/12/08 04:26:24;;;;;;;16.97;11.97;;;;;;;-141.84;100.00;90520.28;5013046;28;20230;-66
2023/12/08 04:28:54;;;;;;;17.37;12.07;;;;;;;-141.84;100.00;89461.13;5011205;28;20191;-65
2023/12/08 04:31:23;;;;;;;18.10;11.57;;;;;;;-141.84;100.00;89196.38;5014387;28;20265;-65
2023/12/08 04:33:54;;;;;;;17.57;11.73;;;;;;;-141.84;100.00;87343.63;5013388;28;20248;-66
2023/12/08 04:36:24;;;;;;;16.80;11.93;;;;;;;-141.84;100.00;83112.00;5013820;28;20230;-65
2023/12/08 04:38:53;;;;;;;15.93;11.47;;;;;;;-141.84;100.00;79148.88;5014017;28;20261;-66
2023/12/08 04:41:23;;;;;;;15.57;11.23;;;;;;;-141.84;100.00;77036.81;5007812;28;20235;-66
2023/12/08 04:43:53;;;;;;;16.40;11.13;;;;;;;-141.84;100.00;69653.38;4995489;28;20203;-65
2023/12/08 04:46:22;;;;;;;16.57;12.50;;;;;;;-141.84;99.29;60180.38;4996213;28;20462;-67
2023/12/08 04:48:51;;;;;;;15.70;10.87;;;;;;;-141.84;98.84;57290.34;4997379;28;20285;-65
2023/12/08 04:51:22;;;;;;;16.17;11.87;;;;;;;-141.84;99.25;57027.72;5014368;28;20227;-65
2023/12/08 04:53:51;;;;;;;16.73;12.20;;;;;;;-141.84;99.36;59391.97;5014834;28;20311;-65
2023/12/08 04:56:20;;;;;;;16.33;11.57;;;;;;;-141.84;99.90;60706.06;5014804;28;20231;-65
2023/12/08 04:58:50;;;;;;;18.90;12.30;;;;;;;-141.84;100.00;64387.81;5014569;28;20324;-66
2023/12/08 05:01:19;;;;;;;17.03;12.10;;;;;;;-141.84;100.00;63072.50;5015462;28;20278;-64
2023/12/08 05:03:48;;;;;;;17.80;12.60;;;;;;;-141.84;100.00;65703.56;5015069;28;20288;-64
2023/12/08 05:06:17;;;;;;;18.03;12.60;;;;;;;-141.84;100.00;69916.81;5014533;28;20726;-66
2023/12/08 05:08:48;;;;;;;17.23;12.43;;;;;;;-141.84;100.00;72288.75;5014301;28;20309;-65
2023/12/08 05:11:17;;;;;;;18.50;12.30;;;;;;;-141.84;100.00;74398.31;5013994;28;20785;-66
2023/12/08 05:13:47;;;;;;;17.97;12.77;;;;;;;-141.84;100.00;72288.75;5013643;28;20209;-66
2023/12/08 05:16:16;;;;;;;19.70;13.43;;;;;;;-141.84;100.00;70707.31;5013451;28;20233;-66
2023/12/08 05:18:45;;;;;;;16.43;12.23;;;;;;;-141.84;100.00;69126.50;5013004;28;20236;-65
2023/12/08 05:21:15;;;;;;;18.97;12.73;;;;;;;-141.84;100.00;73079.69;5012829;28;20798;-66
2023/12/08 05:23:44;;;;;;;18.27;12.17;;;;;;;-141.84;100.00;75981.22;5013010;28;20238;-66
2023/12/08 05:26:15;;;;;;;18.10;12.83;;;;;;;-141.84;100.00;75717.34;5012786;28;20266;-65
2023/12/08 05:28:44;;;;;;;18.00;12.73;;;;;;;-141.84;100.00;70970.84;5012431;28;20677;-66
2023/12/08 05:31:14;;;;;;;19.17;13.60;;;;;;;-141.84;100.00;68863.09;5012896;28;20647;-66
2023/12/08 05:33:43;;;;;;;19.73;13.17;;;;;;;-141.84;100.00;65703.56;5011376;28;20245;-65
2023/12/08 05:36:13;;;;;;;19.77;12.93;;;;;;;-141.84;100.00;67546.31;4999073;28;20227;-66
2023/12/08 05:38:42;;;;;;;20.80;13.07;;;;;;;-141.84;100.00;69389.94;5011897;28;20234;-67
2023/12/08 05:41:13;;;;;;;18.80;12.97;;;;;;;-141.84;100.00;72816.03;5012586;28;20227;-66
2023/12/08 05:43:42;;;;;;;19.47;13.03;;;;;;;-141.84;100.00;74134.56;4997877;28;20223;-66
2023/12/08 05:46:11;;;;;;;19.97;13.80;;;;;;;-141.84;100.00;67283.00;5004434;28;20211;-66
2023/12/08 05:48:41;;;;;;;21.20;14.27;;;;;;;-141.84;100.00;67546.31;5012286;28;20257;-66
2023/12/08 05:51:10;;;;;;;20.03;13.40;;;;;;;-141.84;100.00;73343.38;5012238;28;20229;-66
2023/12/08 05:53:39;;;;;;;19.80;14.27;;;;;;;-141.84;100.00;71497.94;5012376;28;20230;-66
2023/12/08 05:56:10;;;;;;;18.43;13.50;;;;;;;-141.84;100.00;72552.38;5011801;28;20309;-66
2023/12/08 05:58:40;;;;;;;19.97;14.10;;;;;;;-141.84;100.00;75717.34;5010734;28;20289;-66
2023/12/08 06:01:12;;;;;;;20.70;14.10;;;;;;;-141.84;100.00;73870.81;5007259;28;20275;-66
2023/12/08 06:03:41;;;;;;;19.80;14.07;;;;;;;-141.84;100.00;74398.31;4992386;28;20231;-66
2023/12/08 06:06:10;;;;;;;20.07;14.30;;;;;;;-141.84;100.00;69389.94;5005457;28;20777;-66
2023/12/08 06:08:40;;;;;;;19.57;13.50;;;;;;;-141.84;100.00;70970.84;5012015;28;20238;-67
2023/12/08 06:11:09;;;;;;;22.43;14.57;;;;;;;-141.84;100.00;71497.94;5011657;28;20289;-66
2023/12/08 06:13:40;;;;;;;19.40;13.80;;;;;;;-141.84;100.00;70970.84;5011730;28;20207;-66
2023/12/08 06:16:10;;;;;;;19.70;14.40;;;;;;;-141.84;100.00;74134.56;5011936;28;20761;-66
2023/12/08 06:18:39;;;;;;;21.53;14.03;;;;;;;-141.84;100.00;64914.06;5011553;28;20229;-66
2023/12/08 06:21:08;;;;;;;20.80;14.87;;;;;;;-141.84;100.00;63335.53;5007144;28;20242;-66
2023/12/08 06:23:38;;;;;;;21.83;14.20;;;;;;;-141.84;99.51;60180.38;5003000;28;20231;-66
2023/12/08 06:26:07;;;;;;;22.20;14.10;;;;;;;-141.84;100.00;65440.38;4991889;28;20279;-66
2023/12/08 06:28:36;;;;;;;23.40;14.87;;;;;;;-141.84;100.00;69389.94;4994817;28;20231;-65
2023/12/08 06:31:08;;;;;;;21.10;14.13;;;;;;;-141.84;100.00;65703.56;4992144;28;20216;-66
2023/12/08 06:33:38;;;;;;;20.03;14.20;;;;;;;-141.84;100.00;64650.94;4990761;28;20293;-66
2023/12/08 06:36:08;;;;;;;22.67;13.97;;;;;;;-141.84;100.00;69126.50;4984536;28;20251;-66
2023/12/08 06:38:39;;;;;;;18.53;12.57;;;;;;;-141.84;100.00;70443.78;4991821;28;20232;-66
2023/12/08 06:41:09;;;;;;;20.10;13.30;;;;;;;-141.84;99.92;63335.53;4992259;28;20797;-66
2023/12/08 06:43:38;;;;;;;21.33;13.73;;;;;;;-141.84;99.23;60968.94;5011374;28;20285;-66
2023/12/08 06:46:09;;;;;;;18.27;13.30;;;;;;;-141.84;98.47;54927.34;5011624;28;20781;-65
2023/12/08 06:48:38;;;;;;;20.87;14.03;;;;;;;-141.84;97.45;51778.88;5011057;28;20325;-67
2023/12/08 06:51:08;;;;;;;20.57;13.67;;;;;;;-141.84;97.16;49419.16;5007222;28;20594;-65
2023/12/08 06:53:37;;;;;;;18.77;12.87;;;;;;;-141.84;97.00;46798.88;5011129;28;20229;-65
2023/12/08 06:56:07;;;;;;;18.40;12.23;;;;;;;-141.84;97.13;49419.16;5004579;28;20290;-65
2023/12/08 06:58:37;;;;;;;17.83;12.03;;;;;;;-141.84;95.71;40778.88;5011996;28;20225;-64
2023/12/08 07:01:08;;;;;;;17.33;12.80;;;;;;;-141.84;93.43;29194.28;5011171;28;20702;-65
2023/12/08 07:03:37;;;;;;;19.10;12.63;;;;;;;-141.84;93.45;27579.06;5008896;28;20690;-66
2023/12/08 07:06:07;;;;;;;19.30;13.00;;;;;;;-141.84;94.35;30376.06;4995522;28;20225;-64
2023/12/08 07:08:36;;;;;;;18.93;12.37;;;;;;;-141.84;94.94;33723.66;5008855;28;20237;-64
2023/12/08 07:11:06;;;;;;;18.40;12.43;;;;;;;-141.84;94.09;29976.66;5010905;28;20265;-65
2023/12/08 07:13:36;;;;;;;17.93;12.37;;;;;;;-141.84;94.57;33022.09;5011214;28;20289;-66
2023/12/08 07:16:09;;;;;;;19.70;12.30;;;;;;;-141.84;95.16;34933.34;5011316;28;20297;-66
2023/12/08 07:18:39;;;;;;;18.67;11.97;;;;;;;-141.84;94.40;32216.69;5010912;28;20230;-65
2023/12/08 07:21:08;;;;;;;19.27;12.10;;;;;;;-141.84;94.84;33252.56;5010857;28;20233;-65
2023/12/08 07:23:38;;;;;;;17.33;11.53;;;;;;;-141.84;94.03;30628.78;5007234;28;20227;-65
2023/12/08 07:26:09;;;;;;;17.90;12.60;;;;;;;-141.84;93.84;29795.31;5002085;28;20702;-66
2023/12/08 07:28:38;;;;;;;15.97;12.17;;;;;;;-141.84;91.57;23943.75;5004458;28;20253;-66
2023/12/08 07:31:09;;;;;;;16.77;11.27;;;;;;;-141.84;90.75;21102.56;5011569;28;20198;-65
2023/12/08 07:33:38;;;;;;;16.87;11.70;;;;;;;-141.84;91.13;21850.78;5006589;28;20322;-65
2023/12/08 07:36:08;;;;;;;15.10;10.73;;;;;;;-141.84;91.37;22410.03;5010643;28;20261;-65
2023/12/08 07:38:38;;;;;;;19.83;11.97;;;;;;;-141.84;90.80;21598.66;5010444;28;20226;-66
2023/12/08 07:41:07;;;;;;;16.70;11.80;;;;;;;-141.84;87.96;19370.81;5006615;28;20230;-66
2023/12/08 07:43:37;;;;;;;17.93;12.13;;;;;;;-141.84;88.74;19441.94;5009727;28;20203;-66
2023/12/08 07:46:07;;;;;;;17.43;11.77;;;;;;;-141.84;89.98;20397.16;5011195;28;20215;-66
2023/12/08 07:48:38;;;;;;;17.87;11.77;;;;;;;-141.84;90.13;20476.44;4994664;28;20254;-65
2023/12/08 07:51:09;;;;;;;17.37;11.50;;;;;;;-141.84;91.05;21844.69;4991226;28;20234;-66
2023/12/08 07:53:38;;;;;;;16.53;10.97;;;;;;;-141.84;89.41;19994.72;4991090;28;20238;-66
2023/12/08 07:56:08;;;;;;;17.80;11.97;;;;;;;-141.84;89.72;20358.56;4996817;28;20254;-66
2023/12/08 07:58:37;;;;;;;15.97;11.67;;;;;;;-141.84;89.27;20167.47;5007869;28;20286;-66
2023/12/08 08:01:07;;;;;;;17.37;11.93;;;;;;;-141.84;86.80;18952.22;5014684;28;20274;-66
2023/12/08 08:03:38;;;;;;;16.47;11.77;;;;;;;-141.84;85.69;18722.63;5013250;28;20230;-65
2023/12/08 08:06:08;;;;;;;16.30;11.60;;;;;;;-141.84;84.69;18594.63;5011834;28;20215;-66
2023/12/08 08:08:38;;;;;;;17.87;11.40;;;;;;;-141.84;85.44;18655.56;5013868;28;20281;-66
2023/12/08 08:11:08;;;;;;;16.50;11.77;;;;;;;-141.84;85.68;18712.47;5014410;28;20235;-66
2023/12/08 08:13:37;;;;;;;15.80;11.43;;;;;;;-141.84;86.96;18996.91;5014069;28;20265;-66
2023/12/08 08:16:07;;;;;;;16.30;11.77;;;;;;;-141.84;86.05;18840.47;5014701;28;20350;-66
2023/12/08 08:18:37;;;;;;;15.93;12.10;;;;;;;-141.84;85.26;18690.09;5013381;28;20257;-66
2023/12/08 08:21:07;;;;;;;17.30;11.47;;;;;;;-141.84;85.43;18779.50;5013652;28;20702;-66
2023/12/08 08:23:36;;;;;;;15.70;11.07;;;;;;;-141.84;84.09;18521.47;5013873;28;20230;-66
2023/12/08 08:26:06;;;;;;;15.47;11.47;;;;;;;-141.84;84.58;18610.88;5013936;28;20718;-66
2023/12/08 08:28:36;;;;;;;20.37;11.80;;;;;;;-141.84;81.85;18462.56;5014811;28;20388;-67
2023/12/08 08:31:07;;;;;;;18.40;12.00;;;;;;;-141.84;81.72;18423.94;4994938;28;20258;-66
2023/12/08 08:33:38;;;;;;;18.23;12.53;;;;;;;-141.84;83.23;18495.06;4994103;28;20243;-66
2023/12/08 08:36:08;;;;;;;17.13;12.17;;;;;;;-141.84;83.84;18635.25;5007014;28;20305;-66
2023/12/08 08:38:38;;;;;;;15.40;11.37;;;;;;;-141.84;81.97;18464.59;5014416;28;20263;-66
2023/12/08 08:41:07;;;;;;;17.20;11.50;;;;;;;-141.84;80.70;18436.16;5014140;28;20222;-66
2023/12/08 08:43:37;;;;;;;16.93;12.00;;;;;;;-141.84;79.42;18381.28;5014368;28;20240;-66
2023/12/08 08:46:06;;;;;;;15.70;10.83;;;;;;;-141.84;79.82;18391.44;4994302;28;20246;-66
2023/12/08 08:48:37;;;;;;;16.53;11.83;;;;;;;-141.84;80.26;18423.94;5010025;28;20227;-65
2023/12/08 08:51:07;;;;;;;15.73;11.43;;;;;;;-141.84;80.27;18425.97;5013921;28;20226;-66
2023/12/08 08:53:36;;;;;;;16.43;11.27;;;;;;;-141.84;79.61;18393.47;5013508;28;20718;-65
2023/12/08 08:56:06;;;;;;;15.60;11.20;;;;;;;-141.84;80.76;18472.72;5013270;28;20626;-65
2023/12/08 08:58:36;;;;;;;17.13;11.50;;;;;;;-141.84;81.06;18491.00;5014053;28;20203;-66
2023/12/08 09:01:05;;;;;;;14.93;10.77;;;;;;;-141.84;80.23;18403.63;5003902;28;20223;-64
2023/12/08 09:03:34;;;;;;;15.90;11.03;;;;;;;-141.84;81.01;18454.44;5013134;28;20308;-65
2023/12/08 09:06:05;;;;;;;18.00;10.80;;;1.90;99.90;;;-141.84;80.88;18497.09;5015027;28;20231;-65
2023/12/08 09:08:34;;;;;;;19.10;10.90;;;;;;;-141.84;78.35;18393.47;5012939;28;20675;-66
2023/12/08 09:11:04;;;;;;;16.53;11.30;;;;;;;-141.84;78.82;18436.16;5013020;28;20577;-66
2023/12/08 09:13:33;;;;;;;14.67;11.03;;;;;;;-141.84;77.25;18421.91;5014725;28;20203;-65
2023/12/08 09:16:03;;;;;;;16.57;11.00;;;;;;;-141.84;78.15;18417.84;5011771;28;20683;-66
2023/12/08 09:18:32;;;;;;;17.07;11.33;;;;;;;-141.84;77.91;18417.84;5006497;28;20223;-65
2023/12/08 09:21:01;;;;;;;14.63;10.93;;;;;;;-141.84;77.74;18446.31;5014067;28;20231;-66
2023/12/08 09:23:32;;;;;;;17.10;11.53;;;;;;;-141.84;77.54;18428.03;5011754;28;20228;-66
2023/12/08 09:26:02;;;;;;;16.17;11.93;;;;;;;-141.84;78.62;18391.44;5002898;28;20553;-63
2023/12/08 09:28:31;;;;;;;15.53;11.67;;;;;;;-141.84;78.69;18450.38;5012386;28;20250;-61
2023/12/08 09:31:01;;;;;;;16.80;11.87;;;;;;;-141.84;76.70;18446.31;5007390;28;20301;-61
2023/12/08 09:33:30;;;;;;;17.23;12.03;;;;;;;-141.84;77.00;18434.13;5011385;28;20877;-63
2023/12/08 09:35:59;;;;;;;16.20;11.33;;;;;;;-141.84;77.50;18436.16;5009949;28;20310;-64
2023/12/08 09:38:30;;;;;;;14.47;10.40;;;;;;;-141.84;75.64;18401.59;5005379;28;20256;-67
2023/12/08 09:41:04;;;;;;;14.37;10.00;;;;;;;-141.84;76.54;18454.44;5011974;28;20233;-68
2023/12/08 09:43:39;;;;;;;14.10;10.20;;;;;;;-141.84;76.03;18434.13;5010975;28;20310;-67
2023/12/08 09:46:09;;;;;;;15.17;9.90;;;;;;;-141.84;74.56;18387.38;5012079;28;20239;-67
2023/12/08 09:48:40;;;;;;;14.00;9.60;;;;;;;-141.84;74.87;18419.88;5011285;28;20231;-70
2023/12/08 09:51:10;;;;;;;13.97;9.50;;;;;;;-141.84;74.76;18428.03;5012516;28;20569;-72
2023/12/08 09:53:42;;;;;;;14.47;10.63;;;;;;;-141.84;73.23;18436.16;5011289;28;20233;-69
2023/12/08 09:56:12;;;;;;;14.00;10.37;;;;;;;-141.84;74.06;18417.84;5012084;28;20222;-70
2023/12/08 09:58:43;;;;;;;17.00;10.80;;;;;;;-141.84;72.61;18425.97;5009636;28;20199;-71
2023/12/08 10:01:17;;;;;;;15.40;9.93;;;;;;;-141.84;73.25;18417.84;5011238;28;20207;-69
2023/12/08 10:03:46;;;;;;;13.73;9.70;;;;;;;-141.84;72.50;18438.19;5007613;28;20601;-69
2023/12/08 10:06:16;;;;;;;15.03;9.60;;;;;;;-141.84;73.78;18423.94;5004582;28;20688;-69
2023/12/08 10:08:47;;;;;;;14.00;10.13;;;;;;;-141.84;75.08;18448.34;5010704;28;20224;-70
2023/12/08 10:11:17;;;;;;;14.53;10.73;;;;;;;-141.84;73.41;18462.56;5007511;28;20281;-70
2023/12/08 10:13:47;;;;;;;12.20;9.67;;;;;;;-141.84;73.62;18432.09;5009589;28;20636;-69
2023/12/08 10:16:17;;;;;;;14.03;9.63;;;;;;;-141.84;73.43;18460.53;5012267;28;20253;-70
2023/12/08 10:18:47;;;;;;;13.80;10.63;;;;;;;-141.84;72.71;18446.31;5010276;28;20238;-70
2023/12/08 10:21:19;;;;;;;17.10;12.73;;;;;;;-141.84;72.78;18425.97;5011770;28;20238;-70
2023/12/08 10:24:01;;;;;;;18.60;14.37;;;;;;;-141.84;73.43;18444.28;5010392;28;20235;-69
2023/12/08 10:26:31;;;;;;;14.83;12.17;;;;;;;-141.84;74.28;18464.59;5007961;28;20232;-61
2023/12/08 10:29:01;;;;;;;16.07;13.00;;;;;;;-141.84;75.01;18460.53;5008676;28;20222;-62
2023/12/08 10:31:31;;;;;;;14.13;11.40;;;;;;;-141.84;75.10;18456.47;5007437;28;20339;-69
2023/12/08 10:34:00;;;;;;;13.53;11.10;;;;;;;-141.84;73.80;18484.91;5007999;28;20254;-66
2023/12/08 10:36:30;;;;;;;13.37;10.73;;;;;;;-141.84;73.73;18474.75;5007588;28;20219;-66
2023/12/08 10:39:01;;;;;;;13.07;10.33;;;;;;;-141.84;72.29;18440.22;5007924;28;20308;-66
2023/12/08 10:41:31;;;;;;;14.97;9.60;;;;;;;-141.84;72.90;18480.84;5009322;28;20235;-67
2023/12/08 10:44:02;;;;;;;14.13;9.30;;;;;;;-141.84;72.37;18460.53;5009023;28;20264;-66
2023/12/08 10:46:32;;;;;;;11.67;8.60;;;;;;;-141.84;72.30;18460.53;5009909;28;20356;-67
2023/12/08 10:49:02;;;;;;;11.47;8.90;;;;;;;-141.84;72.45;18456.47;5010721;28;20242;-68
2023/12/08 10:51:34;;;;;;;12.17;8.67;;;;;;;-141.84;71.28;18456.47;5010571;28;20222;-67